Time,TemperatureF,DewpointF,PressureIn,WindDirection,WindDirectionDegrees,WindSpeedMPH,WindSpeedGustMPH,Humidity,HourlyPrecipIn,Conditions,Clouds,dailyrainin,SolarRadiationWatts/m^2,SoftwareType,DateUTC
2013-09-25 00:12:00,56.7,56.0,29.89,North,5,2.0,-999.0,98,-99.99,,,0.00,0,weatherlink.com 1.10,2013-09-24 23:12:00,
2013-09-25 00:27:00,56.7,56.0,29.89,NNE,24,5.0,-999.0,98,-99.99,,,0.00,0,weatherlink.com 1.10,2013-09-24 23:27:00,
2013-09-25 00:42:00,56.6,56.0,29.88,NNE,24,4.0,-999.0,98,-99.99,,,0.00,0,weatherlink.com 1.10,2013-09-24 23:42:00,
2013-09-25 00:57:00,56.5,56.0,29.88,NNE,29,3.0,-999.0,98,-99.99,,,0.00,0,weatherlink.com 1.10,2013-09-24 23:57:00,
2013-09-25 01:12:00,56.5,56.0,29.88,NNE,13,5.0,-999.0,98,-99.99,,,0.00,0,weatherlink.com 1.10,2013-09-25 00:12:00,
2013-09-25 01:27:00,56.5,56.0,29.88,NNE,23,1.0,-999.0,98,-99.99,,,0.00,0,weatherlink.com 1.10,2013-09-25 00:27:00,
2013-09-25 01:42:00,56.5,56.0,29.87,North,355,1.0,-999.0,98,-99.99,,,0.00,0,weatherlink.com 1.10,2013-09-25 00:42:00,
2013-09-25 01:57:00,56.5,56.0,29.87,North,360,3.0,-999.0,98,-99.99,,,0.00,0,weatherlink.com 1.10,2013-09-25 00:57:00,
2013-09-25 02:12:00,56.5,56.0,29.87,NW,321,0.0,-999.0,98,-99.99,,,0.00,0,weatherlink.com 1.10,2013-09-25 01:12:00,
2013-09-25 02:27:00,56.4,56.0,29.87,North,351,2.0,-999.0,98,-99.99,,,0.00,0,weatherlink.com 1.10,2013-09-25 01:27:00,
2013-09-25 02:42:00,56.3,56.0,29.86,NNW,330,1.0,-999.0,98,-99.99,,,0.00,0,weatherlink.com 1.10,2013-09-25 01:42:00,
2013-09-25 02:57:00,56.3,56.0,29.86,North,5,0.0,-999.0,98,-99.99,,,0.00,0,weatherlink.com 1.10,2013-09-25 01:57:00,
2013-09-25 03:12:00,56.3,56.0,29.86,North,5,5.0,-999.0,98,-99.99,,,0.00,0,weatherlink.com 1.10,2013-09-25 02:12:00,
2013-09-25 03:27:00,56.2,56.0,29.85,NE,52,1.0,-999.0,98,-99.99,,,0.01,0,weatherlink.com 1.10,2013-09-25 02:27:00,
2013-09-25 03:42:00,56.2,56.0,29.85,North,350,2.0,-999.0,98,-99.99,,,0.01,0,weatherlink.com 1.10,2013-09-25 02:42:00,
2013-09-25 03:57:00,56.2,56.0,29.85,NNE,18,0.0,-999.0,98,-99.99,,,0.01,0,weatherlink.com 1.10,2013-09-25 02:57:00,
2013-09-25 04:12:00,56.2,56.0,29.85,NW,309,0.0,-999.0,98,-99.99,,,0.01,0,weatherlink.com 1.10,2013-09-25 03:12:00,
2013-09-25 04:27:00,56.1,56.0,29.84,NE,38,4.0,-999.0,98,-99.99,,,0.01,0,weatherlink.com 1.10,2013-09-25 03:27:00,
2013-09-25 04:42:00,56.1,56.0,29.84,NNW,340,2.0,-999.0,98,-99.99,,,0.01,0,weatherlink.com 1.10,2013-09-25 03:42:00,
2013-09-25 04:57:00,56.0,56.0,29.84,NNE,19,4.0,-999.0,98,-99.99,,,0.01,0,weatherlink.com 1.10,2013-09-25 03:57:00,
2013-09-25 05:12:00,56.0,56.0,29.84,NNW,343,2.0,-999.0,98,-99.99,,,0.01,0,weatherlink.com 1.10,2013-09-25 04:12:00,
2013-09-25 05:27:00,56.0,56.0,29.84,NW,309,1.0,-999.0,98,-99.99,,,0.01,0,weatherlink.com 1.10,2013-09-25 04:27:00,
2013-09-25 05:42:00,56.0,56.0,29.84,NNW,331,4.0,-999.0,98,-99.99,,,0.01,0,weatherlink.com 1.10,2013-09-25 04:42:00,
2013-09-25 05:57:00,56.0,56.0,29.84,NNE,19,2.0,-999.0,98,-99.99,,,0.01,0,weatherlink.com 1.10,2013-09-25 04:57:00,
2013-09-25 06:12:00,56.0,56.0,29.84,NNW,336,0.0,-999.0,98,-99.99,,,0.01,0,weatherlink.com 1.10,2013-09-25 05:12:00,
2013-09-25 06:27:00,56.0,56.0,29.84,North,11,3.0,-999.0,98,-99.99,,,0.01,0,weatherlink.com 1.10,2013-09-25 05:27:00,
2013-09-25 06:42:00,55.9,55.0,29.84,NNE,15,3.0,-999.0,98,-99.99,,,0.01,0,weatherlink.com 1.10,2013-09-25 05:42:00,
2013-09-25 06:57:00,56.0,56.0,29.84,NNE,23,5.0,-999.0,98,-99.99,,,0.01,0,weatherlink.com 1.10,2013-09-25 05:57:00,
2013-09-25 07:12:00,56.0,56.0,29.84,NE,34,2.0,-999.0,98,-99.99,,,0.01,0,weatherlink.com 1.10,2013-09-25 06:12:00,
2013-09-25 07:27:00,56.0,56.0,29.84,NW,310,3.0,-999.0,98,-99.99,,,0.01,0,weatherlink.com 1.10,2013-09-25 06:27:00,
2013-09-25 07:43:00,56.0,56.0,29.84,North,355,5.0,-999.0,98,-99.99,,,0.01,9,weatherlink.com 1.10,2013-09-25 06:43:00,
2013-09-25 07:58:00,56.1,56.0,29.85,NE,38,2.0,-999.0,98,-99.99,,,0.01,7,weatherlink.com 1.10,2013-09-25 06:58:00,
2013-09-25 08:13:00,56.1,56.0,29.84,NNE,28,1.0,-999.0,98,-99.99,,,0.01,12,weatherlink.com 1.10,2013-09-25 07:13:00,
2013-09-25 08:28:00,56.1,56.0,29.84,NNW,327,1.0,-999.0,98,-99.99,,,0.01,11,weatherlink.com 1.10,2013-09-25 07:28:00,
2013-09-25 08:43:00,56.1,56.0,29.84,NNW,333,1.0,-999.0,98,-99.99,,,0.01,12,weatherlink.com 1.10,2013-09-25 07:43:00,
2013-09-25 08:58:00,56.3,56.0,29.84,North,351,2.0,-999.0,98,-99.99,,,0.01,33,weatherlink.com 1.10,2013-09-25 07:58:00,
2013-09-25 09:13:00,56.4,56.0,29.84,NNW,334,5.0,-999.0,98,-99.99,,,0.01,39,weatherlink.com 1.10,2013-09-25 08:13:00,
2013-09-25 09:28:00,56.5,56.0,29.85,ENE,69,4.0,-999.0,98,-99.99,,,0.01,39,weatherlink.com 1.10,2013-09-25 08:28:00,
2013-09-25 09:43:00,56.7,56.0,29.84,NNW,346,7.0,-999.0,98,-99.99,,,0.01,81,weatherlink.com 1.10,2013-09-25 08:43:00,
2013-09-25 09:58:00,57.0,57.0,29.85,NNW,332,7.0,-999.0,98,-99.99,,,0.01,88,weatherlink.com 1.10,2013-09-25 08:58:00,
2013-09-25 10:13:00,57.3,57.0,29.85,NE,53,8.0,-999.0,98,-99.99,,,0.01,130,weatherlink.com 1.10,2013-09-25 09:13:00,
2013-09-25 10:28:00,57.8,57.0,29.85,NNE,28,5.0,-999.0,98,-99.99,,,0.01,190,weatherlink.com 1.10,2013-09-25 09:28:00,
2013-09-25 10:43:00,58.2,57.0,29.86,NE,45,5.0,-999.0,97,-99.99,,,0.01,118,weatherlink.com 1.10,2013-09-25 09:43:00,
2013-09-25 10:58:00,58.1,57.0,29.86,NNE,28,2.0,-999.0,96,-99.99,,,0.01,109,weatherlink.com 1.10,2013-09-25 09:58:00,
2013-09-25 11:13:00,57.8,56.0,29.87,NE,38,5.0,-999.0,95,-99.99,,,0.01,137,weatherlink.com 1.10,2013-09-25 10:13:00,
2013-09-25 11:28:00,57.8,56.0,29.87,NNW,346,6.0,-999.0,94,-99.99,,,0.01,142,weatherlink.com 1.10,2013-09-25 10:28:00,
2013-09-25 11:43:00,58.0,56.0,29.87,NNE,16,4.0,-999.0,94,-99.99,,,0.01,155,weatherlink.com 1.10,2013-09-25 10:43:00,
2013-09-25 11:58:00,57.9,56.0,29.87,NE,39,5.0,-999.0,92,-99.99,,,0.01,111,weatherlink.com 1.10,2013-09-25 10:58:00,
2013-09-25 12:13:00,57.8,56.0,29.88,NNE,28,9.0,-999.0,93,-99.99,,,0.01,118,weatherlink.com 1.10,2013-09-25 11:13:00,
2013-09-25 12:28:00,57.2,55.0,29.88,NE,44,2.0,-999.0,93,-99.99,,,0.01,125,weatherlink.com 1.10,2013-09-25 11:28:00,
2013-09-25 12:43:00,56.9,55.0,29.88,NE,40,4.0,-999.0,92,-99.99,,,0.01,127,weatherlink.com 1.10,2013-09-25 11:43:00,
2013-09-25 12:58:00,56.6,54.0,29.88,NNE,22,14.0,-999.0,92,-99.99,,,0.01,135,weatherlink.com 1.10,2013-09-25 11:58:00,
2013-09-25 13:12:00,56.5,54.0,29.88,NNE,32,10.0,-999.0,92,-99.99,,,0.01,158,weatherlink.com 1.10,2013-09-25 12:12:00,
2013-09-25 13:28:00,56.4,54.0,29.88,NE,43,5.0,-999.0,92,-99.99,,,0.01,156,weatherlink.com 1.10,2013-09-25 12:28:00,
2013-09-25 13:43:00,56.1,54.0,29.89,NNE,19,6.0,-999.0,91,-99.99,,,0.01,111,weatherlink.com 1.10,2013-09-25 12:43:00,
2013-09-25 13:58:00,56.0,54.0,29.89,ENE,68,12.0,-999.0,91,-99.99,,,0.01,135,weatherlink.com 1.10,2013-09-25 12:58:00,
2013-09-25 14:13:00,56.3,54.0,29.88,NNE,17,4.0,-999.0,90,-99.99,,,0.01,156,weatherlink.com 1.10,2013-09-25 13:13:00,
2013-09-25 14:28:00,55.8,53.0,29.88,ENE,67,6.0,-999.0,90,-99.99,,,0.01,146,weatherlink.com 1.10,2013-09-25 13:28:00,
2013-09-25 14:43:00,55.5,53.0,29.88,NNE,30,7.0,-999.0,90,-99.99,,,0.01,199,weatherlink.com 1.10,2013-09-25 13:43:00,
2013-09-25 14:58:00,55.8,53.0,29.88,NNE,30,4.0,-999.0,90,-99.99,,,0.01,135,weatherlink.com 1.10,2013-09-25 13:58:00,
2013-09-25 15:13:00,55.8,53.0,29.89,NNE,19,7.0,-999.0,90,-99.99,,,0.01,116,weatherlink.com 1.10,2013-09-25 14:13:00,
2013-09-25 15:28:00,55.5,52.0,29.89,NE,36,10.0,-999.0,89,-99.99,,,0.01,76,weatherlink.com 1.10,2013-09-25 14:28:00,
2013-09-25 15:43:00,55.0,52.0,29.90,NNE,15,9.0,-999.0,90,-99.99,,,0.01,84,weatherlink.com 1.10,2013-09-25 14:43:00,
2013-09-25 15:58:00,54.9,52.0,29.89,NE,53,8.0,-999.0,90,-99.99,,,0.01,118,weatherlink.com 1.10,2013-09-25 14:58:00,
2013-09-25 16:14:00,55.0,52.0,29.89,North,355,6.0,-999.0,89,-99.99,,,0.01,100,weatherlink.com 1.10,2013-09-25 15:14:00,
2013-09-25 16:29:00,55.3,52.0,29.89,North,5,6.0,-999.0,88,-99.99,,,0.01,118,weatherlink.com 1.10,2013-09-25 15:29:00,
2013-09-25 16:44:00,55.5,52.0,29.89,North,5,7.0,-999.0,89,-99.99,,,0.01,100,weatherlink.com 1.10,2013-09-25 15:44:00,
2013-09-25 16:59:00,55.2,52.0,29.89,NNE,13,5.0,-999.0,89,-99.99,,,0.01,104,weatherlink.com 1.10,2013-09-25 15:59:00,
2013-09-25 17:14:00,54.9,52.0,29.89,NE,43,5.0,-999.0,89,-99.99,,,0.01,98,weatherlink.com 1.10,2013-09-25 16:14:00,
2013-09-25 17:29:00,55.2,52.0,29.90,NNE,15,8.0,-999.0,88,-99.99,,,0.01,69,weatherlink.com 1.10,2013-09-25 16:29:00,
2013-09-25 17:47:00,54.8,51.0,29.91,NE,34,5.0,-999.0,88,-99.99,,,0.01,67,weatherlink.com 1.10,2013-09-25 16:47:00,
2013-09-25 17:59:00,54.6,51.0,29.91,NNE,24,4.0,-999.0,88,-99.99,,,0.01,19,weatherlink.com 1.10,2013-09-25 16:59:00,
2013-09-25 18:14:00,54.2,51.0,29.91,NNE,22,8.0,-999.0,89,-99.99,,,0.01,25,weatherlink.com 1.10,2013-09-25 17:14:00,
2013-09-25 18:29:00,53.9,51.0,29.92,NE,41,4.0,-999.0,88,-99.99,,,0.01,16,weatherlink.com 1.10,2013-09-25 17:29:00,
2013-09-25 18:44:00,53.6,50.0,29.92,North,360,5.0,-999.0,88,-99.99,,,0.01,7,weatherlink.com 1.10,2013-09-25 17:44:00,
2013-09-25 18:59:00,53.5,50.0,29.93,NE,43,5.0,-999.0,87,-99.99,,,0.01,0,weatherlink.com 1.10,2013-09-25 17:59:00,
2013-09-25 19:14:00,53.4,50.0,29.93,NNW,344,3.0,-999.0,87,-99.99,,,0.01,0,weatherlink.com 1.10,2013-09-25 18:14:00,
2013-09-25 19:29:00,53.3,50.0,29.93,NE,49,4.0,-999.0,87,-99.99,,,0.01,0,weatherlink.com 1.10,2013-09-25 18:29:00,
2013-09-25 19:44:00,53.2,50.0,29.93,North,5,4.0,-999.0,87,-99.99,,,0.02,0,weatherlink.com 1.10,2013-09-25 18:44:00,
2013-09-25 19:59:00,53.0,49.0,29.94,NNE,17,4.0,-999.0,86,-99.99,,,0.02,0,weatherlink.com 1.10,2013-09-25 18:59:00,
2013-09-25 20:14:00,52.6,48.0,29.94,NNE,21,4.0,-999.0,84,-99.99,,,0.02,0,weatherlink.com 1.10,2013-09-25 19:14:00,
2013-09-25 20:29:00,52.4,47.0,29.95,North,9,3.0,-999.0,83,-99.99,,,0.02,0,weatherlink.com 1.10,2013-09-25 19:29:00,
2013-09-25 21:37:00,52.2,49.0,29.97,NNE,14,3.0,-999.0,87,-99.99,,,0.02,0,weatherlink.com 1.10,2013-09-25 20:37:00,
2013-09-25 21:44:00,52.1,48.0,29.96,NNE,15,3.0,-999.0,87,-99.99,,,0.02,0,weatherlink.com 1.10,2013-09-25 20:44:00,
2013-09-25 21:59:00,51.7,48.0,29.97,NNE,20,7.0,-999.0,87,-99.99,,,0.02,0,weatherlink.com 1.10,2013-09-25 20:59:00,
2013-09-25 22:14:00,51.3,48.0,29.97,NNE,26,6.0,-999.0,88,-99.99,,,0.02,0,weatherlink.com 1.10,2013-09-25 21:14:00,
2013-09-25 22:29:00,51.0,48.0,29.97,NE,51,4.0,-999.0,89,-99.99,,,0.02,0,weatherlink.com 1.10,2013-09-25 21:29:00,
2013-09-25 22:44:00,50.7,48.0,29.97,NE,45,6.0,-999.0,89,-99.99,,,0.02,0,weatherlink.com 1.10,2013-09-25 21:44:00,
2013-09-25 22:59:00,50.5,48.0,29.98,NE,40,3.0,-999.0,90,-99.99,,,0.02,0,weatherlink.com 1.10,2013-09-25 21:59:00,
2013-09-25 23:15:00,50.1,47.0,29.98,North,5,6.0,-999.0,90,-99.99,,,0.02,0,weatherlink.com 1.10,2013-09-25 22:15:00,